Lanai City, Hawaii
Current Conditions -  °F | °C
As of 2:56 AM on Friday 19 Dec 2014 (Local Time) from PHNY Reporting Station
Clear Clear  
Wind Chill: 65°   Ceiling: Unl
Heat Index: 65°   Visibility: 10mi
Dew Point: 65°   Wind: 8mph
Humidity: 100%   Direction: 30°NNE
Pressure: 30.12"   Gusts: NA
Location:  20.82°N, 156.91°W
Report Text: PHNY 191256Z AUTO 03007KT 10SM CLR 18/18 A3012 RMK AO2 TSNO T01830183 SLP182 $
Loading
Personal Weather Stations






























Interactive Weather Map New forecast layout! Learn more

10-Day Weather Forecast

Advertisements
Track Severe Weather on mobile